Time;durP1;ratioP1;P1;durP2;ratioP2;P2;SDS_P1;SDS_P2;PMS_P1;PMS_P2;Temp;Humidity;BMP_temperature;BMP_pressure;BME280_temperature;BME280_humidity;BME280_pressure;Samples;Min_cycle;Max_cycle;Signal;HPM_P1;HPM_P2
2023/12/11 12:41:47;;;;;;;8.57;2.40;;;;;;;;;;4969133;27;20531;-71
2023/12/11 12:44:13;;;;;;;7.13;1.80;;;;;;;;;;4916182;28;20071;-78
2023/12/11 12:46:42;;;;;;;10.20;2.05;;;;;;;;;;4952341;28;20215;-81
2023/12/11 12:49:08;;;;;;;13.05;3.47;;;;;;;;;;4970173;28;20062;-82
2023/12/11 12:51:43;;;;;;;8.48;2.00;;;;;;;;;;4977472;28;20449;-83
2023/12/11 12:54:10;;;;;;;11.15;2.70;;;;;;;;;;4966882;28;20328;-83
2023/12/11 12:56:37;;;;;;;11.93;2.28;;;;;;;;;;4977242;28;20986;-82
2023/12/11 12:59:03;;;;;;;15.18;3.08;;;;;;;;;;4982227;28;20114;-82
2023/12/11 13:01:37;;;;;;;11.10;2.10;;;;;;;;;;4991719;28;20039;-81
2023/12/11 13:04:04;;;;;;;13.07;2.63;;;;;;;;;;4989799;28;20348;-80
2023/12/11 13:06:31;;;;;;;12.65;2.40;;;;;;;;;;4999801;28;20579;-81
2023/12/11 13:08:57;;;;;;;12.82;2.38;;;;;;;;;;5006105;28;20132;-82
2023/12/11 13:11:45;;;;;;;15.27;2.90;;;;;;;;;;5004617;28;20059;-82
2023/12/11 13:14:12;;;;;;;12.30;2.85;;;;;;;;;;5008175;28;20580;-86
2023/12/11 13:16:40;;;;;;;11.45;2.50;;;;;;;;;;5021915;28;20142;-85
2023/12/11 13:19:06;;;;;;;11.20;1.90;;;;;;;;;;5020907;28;20320;-86
2023/12/11 13:21:32;;;;;;;9.43;2.30;;;;;;;;;;5023266;27;20324;-85
2023/12/11 13:23:58;;;;;;;10.82;2.53;;;;;;;;;;5025354;27;20296;-86
2023/12/11 13:26:25;;;;;;;15.07;2.50;;;;;;;;;;5047831;27;20470;-87
2023/12/11 13:28:51;;;;;;;11.77;2.03;;;;;;;;;;5054074;28;20024;-86
2023/12/11 13:31:17;;;;;;;12.93;2.35;;;;;;;;;;5051616;27;20365;-85
2023/12/11 13:33:43;;;;;;;11.05;2.35;;;;;;;;;;5053453;27;20238;-85
2023/12/11 13:36:10;;;;;;;13.07;2.17;;;;;;;;;;5045141;28;20582;-85
2023/12/11 13:38:36;;;;;;;12.98;3.15;;;;;;;;;;5026720;27;20030;-85
2023/12/11 13:41:02;;;;;;;11.77;2.17;;;;;;;;;;5008195;28;20260;-85
2023/12/11 13:43:28;;;;;;;14.57;2.60;;;;;;;;;;4994288;27;20368;-86
2023/12/11 13:45:54;;;;;;;13.10;2.40;;;;;;;;;;5016674;28;20387;-86
2023/12/11 13:48:20;;;;;;;13.57;2.90;;;;;;;;;;5016899;27;20028;-85
2023/12/11 13:50:46;;;;;;;13.27;2.95;;;;;;;;;;5027120;27;20360;-85
2023/12/11 13:53:13;;;;;;;17.42;3.25;;;;;;;;;;4978435;28;20564;-73
2023/12/11 13:55:39;;;;;;;13.25;2.83;;;;;;;;;;4983541;28;20473;-73
2023/12/11 13:58:05;;;;;;;11.68;2.05;;;;;;;;;;4975351;28;20369;-73
2023/12/11 14:00:31;;;;;;;13.77;2.38;;;;;;;;;;4980256;28;20271;-72
2023/12/11 14:02:57;;;;;;;13.13;2.63;;;;;;;;;;4982976;28;20360;-72
2023/12/11 14:05:23;;;;;;;17.88;3.10;;;;;;;;;;4982773;28;20415;-73
2023/12/11 14:07:50;;;;;;;15.75;3.22;;;;;;;;;;4984544;28;20251;-75
2023/12/11 14:10:16;;;;;;;18.30;3.22;;;;;;;;;;4978346;28;20335;-74
2023/12/11 14:12:43;;;;;;;15.85;3.30;;;;;;;;;;4960335;28;20297;-72
2023/12/11 14:15:09;;;;;;;16.40;3.28;;;;;;;;;;4912597;28;20504;-71
2023/12/11 14:17:35;;;;;;;12.20;2.30;;;;;;;;;;4956386;28;20656;-72
2023/12/11 14:20:02;;;;;;;15.07;2.80;;;;;;;;;;4970211;28;20191;-74
2023/12/11 14:22:30;;;;;;;15.20;2.90;;;;;;;;;;4964752;28;20279;-71
2023/12/11 14:24:56;;;;;;;16.98;2.80;;;;;;;;;;4969290;28;20398;-73
2023/12/11 14:27:23;;;;;;;13.93;3.70;;;;;;;;;;4961030;28;20308;-72
2023/12/11 14:29:50;;;;;;;13.65;2.92;;;;;;;;;;4973896;28;20194;-73
2023/12/11 14:32:16;;;;;;;12.02;2.63;;;;;;;;;;4982260;28;20036;-73
2023/12/11 14:34:43;;;;;;;17.70;3.17;;;;;;;;;;4986590;28;20098;-73
2023/12/11 14:37:09;;;;;;;15.77;3.53;;;;;;;;;;4994751;28;20023;-72
2023/12/11 14:39:36;;;;;;;20.15;3.20;;;;;;;;;;4971480;28;20056;-74
2023/12/11 14:42:02;;;;;;;16.52;3.10;;;;;;;;;;4973445;28;20273;-73
2023/12/11 14:44:28;;;;;;;21.40;3.30;;;;;;;;;;4938349;28;20299;-73
2023/12/11 14:46:54;;;;;;;16.70;3.00;;;;;;;;;;4976942;28;20612;-71
2023/12/11 14:49:22;;;;;;;18.52;3.20;;;;;;;;;;4965555;28;20352;-72
2023/12/11 14:51:48;;;;;;;11.43;2.90;;;;;;;;;;4981822;28;20052;-71
2023/12/11 14:54:15;;;;;;;17.05;2.88;;;;;;;;;;4971063;28;20102;-71
2023/12/11 14:56:41;;;;;;;16.40;3.47;;;;;;;;;;4992127;28;20032;-71
2023/12/11 14:59:08;;;;;;;16.70;3.17;;;;;;;;;;4980664;28;20406;-70
2023/12/11 15:01:34;;;;;;;16.52;3.95;;;;;;;;;;4981283;28;20545;-71
2023/12/11 15:04:00;;;;;;;15.50;2.97;;;;;;;;;;4967708;28;20032;-71
2023/12/11 15:06:26;;;;;;;17.05;2.95;;;;;;;;;;5023892;28;20421;-72
2023/12/11 15:08:52;;;;;;;15.20;2.85;;;;;;;;;;5016147;28;20097;-72
2023/12/11 15:11:20;;;;;;;17.38;3.47;;;;;;;;;;5014597;28;20631;-73
2023/12/11 15:13:47;;;;;;;19.45;3.78;;;;;;;;;;5014464;28;20424;-72
2023/12/11 15:16:13;;;;;;;15.32;4.05;;;;;;;;;;5028117;28;20666;-72
2023/12/11 15:18:40;;;;;;;15.95;3.10;;;;;;;;;;5039806;28;20035;-72
2023/12/11 15:21:07;;;;;;;20.35;3.90;;;;;;;;;;5039710;28;21321;-72
2023/12/11 15:23:33;;;;;;;17.27;3.03;;;;;;;;;;5032163;28;20096;-71
2023/12/11 15:25:59;;;;;;;13.02;3.00;;;;;;;;;;5041392;28;20350;-71
2023/12/11 15:28:25;;;;;;;18.05;3.35;;;;;;;;;;5040545;28;20100;-71
2023/12/11 15:30:51;;;;;;;22.52;3.40;;;;;;;;;;5025271;28;20220;-72
2023/12/11 15:33:17;;;;;;;18.13;3.13;;;;;;;;;;5038079;28;20032;-71
2023/12/11 15:35:44;;;;;;;19.33;3.88;;;;;;;;;;5041603;28;20060;-71
2023/12/11 15:38:10;;;;;;;18.15;3.80;;;;;;;;;;5035165;28;20279;-71
2023/12/11 15:40:36;;;;;;;22.05;4.55;;;;;;;;;;5045062;28;20172;-71
2023/12/11 15:43:02;;;;;;;14.50;3.92;;;;;;;;;;4997967;28;20317;-71
2023/12/11 15:45:28;;;;;;;18.58;3.78;;;;;;;;;;5032054;28;20232;-71
2023/12/11 15:47:54;;;;;;;16.80;3.38;;;;;;;;;;5031427;28;20656;-71
2023/12/11 15:50:20;;;;;;;18.30;3.17;;;;;;;;;;5033086;28;20028;-71
2023/12/11 15:52:46;;;;;;;18.88;5.10;;;;;;;;;;5035561;28;20032;-71
2023/12/11 15:55:12;;;;;;;19.40;4.03;;;;;;;;;;5044144;28;20587;-72
2023/12/11 15:57:38;;;;;;;19.33;3.78;;;;;;;;;;5034776;28;20245;-71
2023/12/11 16:00:08;;;;;;;15.70;3.08;;;;;;;;;;5032666;28;20136;-71
2023/12/11 16:02:35;;;;;;;16.35;2.72;;;;;;;;;;5036628;28;20024;-71
2023/12/11 16:05:04;;;;;;;19.55;4.10;;;;;;;;;;5040059;28;20032;-82
2023/12/11 16:07:30;;;;;;;19.83;5.65;;;;;;;;;;5061333;28;20441;-83
2023/12/11 16:09:56;;;;;;;15.15;4.05;;;;;;;;;;5051018;28;20594;-85
2023/12/11 16:12:22;;;;;;;27.38;5.18;;;;;;;;;;5054619;28;20123;-83
2023/12/11 16:14:50;;;;;;;16.88;5.63;;;;;;;;;;5050230;28;20294;-85
2023/12/11 16:17:16;;;;;;;24.20;6.93;;;;;;;;;;5051663;28;20200;-84
2023/12/11 16:19:45;;;;;;;25.98;5.70;;;;;;;;;;5049473;28;20058;-85
2023/12/11 16:22:11;;;;;;;20.88;5.15;;;;;;;;;;5064154;28;20368;-85
2023/12/11 16:24:39;;;;;;;14.23;3.05;;;;;;;;;;5053003;28;20044;-84
2023/12/11 16:27:05;;;;;;;18.90;4.32;;;;;;;;;;5055771;28;20259;-83
2023/12/11 16:29:34;;;;;;;16.65;4.28;;;;;;;;;;5056056;28;20657;-82
2023/12/11 16:32:00;;;;;;;19.90;4.47;;;;;;;;;;5044240;28;20262;-83
2023/12/11 16:34:28;;;;;;;19.20;4.68;;;;;;;;;;5047907;28;20566;-83
2023/12/11 16:36:54;;;;;;;20.30;4.25;;;;;;;;;;5056232;28;20036;-83
2023/12/11 16:39:21;;;;;;;19.90;4.47;;;;;;;;;;5058713;28;20531;-83
2023/12/11 16:41:47;;;;;;;20.23;4.55;;;;;;;;;;5057929;28;20101;-83
2023/12/11 16:44:14;;;;;;;19.50;4.28;;;;;;;;;;4995607;28;20145;-83
2023/12/11 16:46:43;;;;;;;24.30;5.05;;;;;;;;;;5059044;28;20040;-82
2023/12/11 16:49:10;;;;;;;18.90;5.15;;;;;;;;;;5064282;28;20016;-83
2023/12/11 16:51:37;;;;;;;19.05;4.13;;;;;;;;;;5054725;28;20316;-82
2023/12/11 16:54:04;;;;;;;21.13;5.95;;;;;;;;;;5060441;28;20383;-83
2023/12/11 16:56:30;;;;;;;18.88;5.35;;;;;;;;;;5062371;28;20480;-84
2023/12/11 16:58:57;;;;;;;19.13;4.13;;;;;;;;;;5056717;28;20241;-83
2023/12/11 17:01:23;;;;;;;24.17;7.93;;;;;;;;;;5063093;28;20213;-84
2023/12/11 17:03:50;;;;;;;23.73;6.90;;;;;;;;;;5059066;28;20020;-83
2023/12/11 17:06:16;;;;;;;27.17;9.30;;;;;;;;;;5052228;28;20125;-83
2023/12/11 17:08:43;;;;;;;22.40;7.60;;;;;;;;;;5051591;28;20301;-83
2023/12/11 17:11:09;;;;;;;21.08;7.47;;;;;;;;;;5063599;28;20506;-83
2023/12/11 17:13:37;;;;;;;23.23;10.02;;;;;;;;;;5056502;28;20119;-83
2023/12/11 17:16:03;;;;;;;24.10;7.32;;;;;;;;;;5055904;28;20254;-83
2023/12/11 17:18:29;;;;;;;29.17;7.95;;;;;;;;;;5056072;28;20493;-83
2023/12/11 17:20:55;;;;;;;23.80;7.45;;;;;;;;;;5050540;28;20308;-83
2023/12/11 17:23:21;;;;;;;22.17;7.90;;;;;;;;;;5056613;28;20227;-83
2023/12/11 17:25:47;;;;;;;20.88;7.13;;;;;;;;;;5053439;28;20275;-81
2023/12/11 17:28:13;;;;;;;21.80;9.73;;;;;;;;;;5057537;28;20220;-81
2023/12/11 17:30:40;;;;;;;25.17;10.00;;;;;;;;;;5060074;28;20373;-81
2023/12/11 17:33:06;;;;;;;20.88;8.98;;;;;;;;;;5051544;28;20035;-80
2023/12/11 17:35:32;;;;;;;21.27;8.90;;;;;;;;;;5047707;28;20055;-81
2023/12/11 17:37:58;;;;;;;23.88;9.15;;;;;;;;;;5053534;28;20064;-79
2023/12/11 17:40:24;;;;;;;19.88;9.23;;;;;;;;;;5054548;28;20397;-81
2023/12/11 17:42:51;;;;;;;26.48;9.65;;;;;;;;;;5000229;28;20576;-81
2023/12/11 17:45:17;;;;;;;23.23;8.43;;;;;;;;;;5056155;28;20988;-81
2023/12/11 17:47:43;;;;;;;21.83;9.20;;;;;;;;;;5058457;28;20158;-80
2023/12/11 17:50:10;;;;;;;22.45;9.40;;;;;;;;;;5054877;28;20458;-81
2023/12/11 17:52:36;;;;;;;26.05;10.20;;;;;;;;;;5050280;28;20085;-80
2023/12/11 17:55:03;;;;;;;18.90;8.18;;;;;;;;;;5062950;28;20028;-80
2023/12/11 17:57:31;;;;;;;20.80;8.10;;;;;;;;;;5059868;28;20035;-81
2023/12/11 17:59:57;;;;;;;21.15;8.13;;;;;;;;;;5057112;28;20568;-81
2023/12/11 18:02:23;;;;;;;20.77;8.38;;;;;;;;;;5055308;28;20036;-79
2023/12/11 18:04:50;;;;;;;26.25;10.65;;;;;;;;;;5059818;28;20673;-80
2023/12/11 18:07:19;;;;;;;21.95;8.68;;;;;;;;;;5055742;28;20051;-80
2023/12/11 18:09:47;;;;;;;23.60;9.60;;;;;;;;;;5060489;28;20239;-80
2023/12/11 18:12:14;;;;;;;22.95;9.48;;;;;;;;;;5058020;28;20039;-80
2023/12/11 18:14:40;;;;;;;24.42;9.60;;;;;;;;;;5055076;28;20557;-80
2023/12/11 18:17:07;;;;;;;20.25;8.57;;;;;;;;;;5062766;28;20308;-80
2023/12/11 18:19:33;;;;;;;24.60;10.48;;;;;;;;;;5058603;28;20047;-80
2023/12/11 18:21:59;;;;;;;21.23;10.18;;;;;;;;;;5062722;28;20439;-80
2023/12/11 18:24:25;;;;;;;20.75;11.30;;;;;;;;;;5061271;28;20358;-80
2023/12/11 18:26:51;;;;;;;22.48;12.27;;;;;;;;;;5057377;28;20423;-80
2023/12/11 18:29:17;;;;;;;29.20;16.40;;;;;;;;;;5059021;28;20308;-80
2023/12/11 18:31:44;;;;;;;24.48;12.75;;;;;;;;;;5060458;28;20030;-81
2023/12/11 18:34:10;;;;;;;23.58;14.32;;;;;;;;;;5062125;28;20036;-80
2023/12/11 18:36:39;;;;;;;27.60;15.48;;;;;;;;;;5066281;28;20158;-80
2023/12/11 18:39:06;;;;;;;34.15;17.35;;;;;;;;;;5062648;28;20203;-80
2023/12/11 18:41:32;;;;;;;27.45;15.85;;;;;;;;;;5056326;28;20316;-81
2023/12/11 18:43:58;;;;;;;39.05;23.38;;;;;;;;;;5008823;28;20110;-80
2023/12/11 18:46:24;;;;;;;34.45;21.50;;;;;;;;;;5056418;28;20102;-81
2023/12/11 18:48:50;;;;;;;37.35;22.00;;;;;;;;;;5057955;28;20700;-80
2023/12/11 18:51:24;;;;;;;42.08;24.95;;;;;;;;;;5061205;28;20256;-81
2023/12/11 18:53:50;;;;;;;32.53;20.73;;;;;;;;;;5060297;28;20074;-80
2023/12/11 18:56:20;;;;;;;38.90;23.50;;;;;;;;;;5058695;28;20035;-79
2023/12/11 18:58:46;;;;;;;39.20;22.35;;;;;;;;;;5056752;28;20303;-81
2023/12/11 19:01:12;;;;;;;40.10;24.65;;;;;;;;;;5055182;28;20281;-81
2023/12/11 19:03:38;;;;;;;39.22;24.83;;;;;;;;;;5061570;28;20326;-81
2023/12/11 19:06:05;;;;;;;39.83;27.00;;;;;;;;;;5054896;28;20068;-81
2023/12/11 19:08:31;;;;;;;50.05;30.83;;;;;;;;;;5057490;28;20358;-80
2023/12/11 19:10:57;;;;;;;54.78;32.78;;;;;;;;;;5057662;28;20044;-81
2023/12/11 19:13:23;;;;;;;48.58;26.85;;;;;;;;;;5055230;28;20116;-80
2023/12/11 19:15:49;;;;;;;46.85;27.30;;;;;;;;;;5058402;28;20036;-80
2023/12/11 19:18:15;;;;;;;50.28;24.48;;;;;;;;;;5054543;28;20379;-81
2023/12/11 19:20:42;;;;;;;44.90;23.75;;;;;;;;;;5059218;28;20132;-80
2023/12/11 19:23:08;;;;;;;39.42;21.50;;;;;;;;;;5057171;28;20109;-81
2023/12/11 19:25:34;;;;;;;40.75;21.15;;;;;;;;;;5058591;28;20093;-80
2023/12/11 19:28:00;;;;;;;37.72;21.75;;;;;;;;;;5059398;28;20872;-80
2023/12/11 19:30:27;;;;;;;37.67;20.10;;;;;;;;;;5061116;28;20039;-80
2023/12/11 19:32:53;;;;;;;32.15;16.95;;;;;;;;;;5056009;28;20040;-79
2023/12/11 19:35:20;;;;;;;33.67;19.33;;;;;;;;;;5062451;28;20067;-80
2023/12/11 19:37:46;;;;;;;34.70;20.58;;;;;;;;;;5059693;28;20425;-80
2023/12/11 19:40:13;;;;;;;41.50;23.05;;;;;;;;;;5053809;28;20044;-79
2023/12/11 19:42:46;;;;;;;43.13;22.65;;;;;;;;;;5033761;28;20028;-81
2023/12/11 19:45:12;;;;;;;39.08;22.65;;;;;;;;;;5051957;28;20115;-80
2023/12/11 19:47:39;;;;;;;35.15;21.88;;;;;;;;;;5060524;28;20113;-80
2023/12/11 19:50:05;;;;;;;41.55;24.25;;;;;;;;;;5053921;28;20390;-80
2023/12/11 19:52:31;;;;;;;52.08;27.63;;;;;;;;;;5058825;28;20035;-80
2023/12/11 19:54:58;;;;;;;50.80;27.85;;;;;;;;;;5054537;28;20037;-81
2023/12/11 19:57:24;;;;;;;48.20;25.23;;;;;;;;;;5059487;28;20566;-81
2023/12/11 19:59:50;;;;;;;44.63;24.23;;;;;;;;;;5057615;28;20320;-81
2023/12/11 20:02:17;;;;;;;57.17;28.80;;;;;;;;;;5056856;28;20111;-81
2023/12/11 20:04:43;;;;;;;54.28;29.77;;;;;;;;;;5060361;28;20447;-81
2023/12/11 20:07:09;;;;;;;44.90;27.08;;;;;;;;;;5054606;28;20289;-81
2023/12/11 20:09:35;;;;;;;41.17;23.77;;;;;;;;;;5059184;28;20028;-81
2023/12/11 20:12:02;;;;;;;36.33;22.88;;;;;;;;;;5054877;28;20530;-79
2023/12/11 20:14:28;;;;;;;47.08;27.13;;;;;;;;;;5057058;28;20099;-81
2023/12/11 20:16:54;;;;;;;42.33;26.00;;;;;;;;;;5057901;28;20150;-80
2023/12/11 20:19:20;;;;;;;42.60;24.77;;;;;;;;;;5060582;28;20124;-81
2023/12/11 20:21:48;;;;;;;40.65;25.58;;;;;;;;;;5058257;28;20059;-81
2023/12/11 20:24:14;;;;;;;44.28;23.30;;;;;;;;;;5061954;28;20020;-81
2023/12/11 20:26:41;;;;;;;41.42;21.90;;;;;;;;;;5058810;28;20035;-81
2023/12/11 20:29:07;;;;;;;39.72;19.33;;;;;;;;;;5053408;28;20033;-79
2023/12/11 20:31:33;;;;;;;35.60;17.80;;;;;;;;;;5056706;28;20101;-80
2023/12/11 20:33:59;;;;;;;34.20;15.55;;;;;;;;;;5056133;28;20042;-80
2023/12/11 20:36:25;;;;;;;35.45;16.27;;;;;;;;;;5054056;28;20486;-81
2023/12/11 20:38:52;;;;;;;37.67;18.83;;;;;;;;;;5048968;28;20392;-81
2023/12/11 20:41:26;;;;;;;37.35;20.30;;;;;;;;;;5026548;28;20427;-81
2023/12/11 20:43:57;;;;;;;45.10;23.80;;;;;;;;;;4979042;28;20216;-80
2023/12/11 20:46:26;;;;;;;53.47;25.70;;;;;;;;;;5035575;28;20040;-81
2023/12/11 20:48:53;;;;;;;49.97;22.02;;;;;;;;;;5034187;28;20461;-81
2023/12/11 20:51:19;;;;;;;40.15;19.65;;;;;;;;;;5035394;28;20119;-80
2023/12/11 20:53:46;;;;;;;38.40;17.98;;;;;;;;;;5034260;28;20044;-81
2023/12/11 20:59:11;;;;;;;25.40;10.80;;;;;;;;;;5051176;28;20806;-80
2023/12/11 21:01:38;;;;;;;19.05;6.53;;;;;;;;;;5036206;28;20037;-78
2023/12/11 21:04:06;;;;;;;21.75;6.68;;;;;;;;;;5034872;28;20033;-78
2023/12/11 21:06:33;;;;;;;14.32;4.47;;;;;;;;;;5041024;28;20036;-79
2023/12/11 21:08:59;;;;;;;16.63;4.90;;;;;;;;;;5031057;28;20043;-80
2023/12/11 21:11:26;;;;;;;14.13;4.55;;;;;;;;;;5040058;28;20040;-80
2023/12/11 21:13:52;;;;;;;11.07;2.78;;;;;;;;;;5035657;28;20266;-79
2023/12/11 21:16:19;;;;;;;11.07;1.70;;;;;;;;;;5041068;28;20219;-80
2023/12/11 21:18:45;;;;;;;7.25;1.67;;;;;;;;;;5033218;28;20254;-80
2023/12/11 21:21:15;;;;;;;5.38;1.50;;;;;;;;;;5035099;28;20032;-80
2023/12/11 21:23:43;;;;;;;7.25;1.73;;;;;;;;;;5042235;28;20032;-81
2023/12/11 21:26:17;;;;;;;12.98;2.70;;;;;;;;;;5036912;28;20192;-81
2023/12/11 21:28:43;;;;;;;8.23;1.60;;;;;;;;;;5039115;28;20024;-82
2023/12/11 21:34:15;;;;;;;10.02;2.55;;;;;;;;;;5043575;27;21007;-78
2023/12/11 21:36:41;;;;;;;10.65;2.92;;;;;;;;;;5046715;28;20071;-77
2023/12/11 21:39:07;;;;;;;8.60;2.22;;;;;;;;;;5046486;28;20516;-77
2023/12/11 21:41:33;;;;;;;11.27;2.53;;;;;;;;;;5048743;28;20028;-77
2023/12/11 21:44:00;;;;;;;8.65;1.88;;;;;;;;;;5011091;28;20508;-77
2023/12/11 21:46:26;;;;;;;9.38;2.33;;;;;;;;;;5042524;28;20199;-77
2023/12/11 21:48:54;;;;;;;7.68;2.40;;;;;;;;;;5049923;28;20036;-77
2023/12/11 21:51:20;;;;;;;8.18;2.47;;;;;;;;;;5047258;28;20117;-78
2023/12/11 21:53:47;;;;;;;7.75;2.20;;;;;;;;;;5045046;28;20636;-77
2023/12/11 21:56:13;;;;;;;8.40;2.90;;;;;;;;;;5046054;28;20040;-77
2023/12/11 21:58:40;;;;;;;6.75;2.55;;;;;;;;;;5048997;28;20367;-77
2023/12/11 22:01:07;;;;;;;5.75;2.25;;;;;;;;;;5046305;28;20071;-77
2023/12/11 22:03:33;;;;;;;6.07;2.10;;;;;;;;;;5042451;28;20029;-77
2023/12/11 22:05:59;;;;;;;7.72;2.22;;;;;;;;;;5043051;28;20079;-79
2023/12/11 22:08:26;;;;;;;7.88;2.95;;;;;;;;;;5044735;28;20918;-77
2023/12/11 22:10:52;;;;;;;16.02;6.38;;;;;;;;;;5043184;28;20127;-77
2023/12/11 22:13:18;;;;;;;11.88;4.90;;;;;;;;;;5048005;28;20123;-77
2023/12/11 22:15:44;;;;;;;13.13;4.40;;;;;;;;;;5043877;28;20277;-77
2023/12/11 22:18:10;;;;;;;9.48;3.90;;;;;;;;;;5043567;28;20044;-78
2023/12/11 22:20:37;;;;;;;12.98;4.28;;;;;;;;;;5045086;28;20047;-78
2023/12/11 22:23:03;;;;;;;13.23;4.05;;;;;;;;;;5045708;28;20409;-77
2023/12/11 22:25:30;;;;;;;12.38;3.53;;;;;;;;;;5048870;28;20044;-77
2023/12/11 22:27:56;;;;;;;12.38;3.63;;;;;;;;;;5045848;28;20375;-76
2023/12/11 22:30:23;;;;;;;12.70;3.65;;;;;;;;;;5048387;28;20028;-77
2023/12/11 22:32:50;;;;;;;11.38;3.35;;;;;;;;;;5044394;28;20066;-76
2023/12/11 22:35:18;;;;;;;9.85;2.75;;;;;;;;;;5041468;28;20339;-77
2023/12/11 22:37:44;;;;;;;9.95;2.50;;;;;;;;;;5046771;28;20039;-77
2023/12/11 22:40:10;;;;;;;13.48;2.63;;;;;;;;;;5042113;28;20797;-77
2023/12/11 22:42:36;;;;;;;8.07;2.50;;;;;;;;;;5027339;28;20090;-77
2023/12/11 22:45:03;;;;;;;12.90;2.50;;;;;;;;;;5011083;28;20349;-77
2023/12/11 22:47:29;;;;;;;14.38;2.88;;;;;;;;;;5033275;28;20034;-77
2023/12/11 22:49:55;;;;;;;11.40;3.13;;;;;;;;;;5033680;28;20028;-77
2023/12/11 22:52:21;;;;;;;13.80;3.33;;;;;;;;;;5032837;28;20080;-77
2023/12/11 22:54:48;;;;;;;14.13;3.00;;;;;;;;;;5027928;28;20020;-78
2023/12/11 22:57:14;;;;;;;13.73;4.25;;;;;;;;;;5027915;28;20059;-77
2023/12/11 22:59:40;;;;;;;14.70;3.50;;;;;;;;;;5034219;28;20712;-77
2023/12/11 23:02:08;;;;;;;17.30;4.13;;;;;;;;;;5025779;28;20488;-77
2023/12/11 23:05:04;;;;;;;15.65;3.42;;;;;;;;;;5029205;28;20129;-77
2023/12/11 23:07:30;;;;;;;14.63;2.42;;;;;;;;;;5023129;28;20127;-76
2023/12/11 23:09:56;;;;;;;14.05;3.42;;;;;;;;;;5032503;28;20029;-77
2023/12/11 23:12:22;;;;;;;12.18;2.67;;;;;;;;;;5037132;28;20129;-77
2023/12/11 23:14:48;;;;;;;14.18;3.83;;;;;;;;;;5026837;28;20348;-77
2023/12/11 23:17:14;;;;;;;11.98;2.40;;;;;;;;;;5030544;28;20587;-77
2023/12/11 23:19:40;;;;;;;10.55;1.83;;;;;;;;;;5028590;28;20037;-78
2023/12/11 23:22:06;;;;;;;7.40;1.90;;;;;;;;;;5031389;28;20028;-78
2023/12/11 23:24:32;;;;;;;14.35;2.22;;;;;;;;;;5031554;28;20115;-77
2023/12/11 23:26:59;;;;;;;11.05;2.47;;;;;;;;;;5032358;28;20553;-78
2023/12/11 23:29:25;;;;;;;15.00;2.28;;;;;;;;;;5033301;28;21363;-77
2023/12/11 23:31:51;;;;;;;8.38;1.60;;;;;;;;;;5030859;28;20045;-78
2023/12/11 23:34:17;;;;;;;11.57;2.08;;;;;;;;;;5026301;28;20048;-78
2023/12/11 23:36:43;;;;;;;12.07;2.20;;;;;;;;;;5031238;28;20028;-78
2023/12/11 23:39:09;;;;;;;11.82;2.00;;;;;;;;;;5033201;28;20397;-78
2023/12/11 23:41:35;;;;;;;8.63;2.05;;;;;;;;;;5032851;28;20115;-78
2023/12/11 23:44:01;;;;;;;9.85;2.53;;;;;;;;;;4990266;28;20304;-78
2023/12/11 23:46:27;;;;;;;9.85;2.10;;;;;;;;;;5029354;28;20505;-78
2023/12/11 23:48:53;;;;;;;11.52;2.72;;;;;;;;;;5029909;28;20032;-78
2023/12/11 23:51:20;;;;;;;13.43;2.92;;;;;;;;;;5033627;28;20400;-78
2023/12/11 23:53:46;;;;;;;12.52;3.72;;;;;;;;;;5023346;28;20430;-78
2023/12/11 23:56:12;;;;;;;15.95;3.60;;;;;;;;;;5030689;28;20085;-77
2023/12/11 23:58:38;;;;;;;8.70;2.10;;;;;;;;;;5028861;28;20120;-77
